sensor_id;sensor_type;location;lat;lon;timestamp;pressure;altitude;pressure_sealevel;temperature;humidity
62942;BME280;49042;47.318;19.874;2023-04-24T00:00:29;99760.31;;;8.82;82.61
62942;BME280;49042;47.318;19.874;2023-04-24T00:03:32;99762.16;;;8.86;83.06
62942;BME280;49042;47.318;19.874;2023-04-24T00:06:34;99762.97;;;8.85;82.46
62942;BME280;49042;47.318;19.874;2023-04-24T00:09:38;99763.88;;;8.85;82.53
62942;BME280;49042;47.318;19.874;2023-04-24T00:12:40;99760.44;;;8.86;82.39
62942;BME280;49042;47.318;19.874;2023-04-24T00:15:42;99751.63;;;8.81;82.32
62942;BME280;49042;47.318;19.874;2023-04-24T00:18:43;99746.88;;;8.66;83.38
62942;BME280;49042;47.318;19.874;2023-04-24T00:21:46;99750.06;;;8.88;82.13
62942;BME280;49042;47.318;19.874;2023-04-24T00:24:51;99745.00;;;8.93;81.71
62942;BME280;49042;47.318;19.874;2023-04-24T00:27:52;99744.03;;;8.89;82.11
62942;BME280;49042;47.318;19.874;2023-04-24T00:30:54;99746.09;;;9.03;81.45
62942;BME280;49042;47.318;19.874;2023-04-24T00:33:56;99743.19;;;8.90;82.14
62942;BME280;49042;47.318;19.874;2023-04-24T00:36:57;99742.16;;;8.83;82.68
62942;BME280;49042;47.318;19.874;2023-04-24T00:39:59;99745.78;;;8.59;84.47
62942;BME280;49042;47.318;19.874;2023-04-24T00:43:01;99751.16;;;8.64;84.54
62942;BME280;49042;47.318;19.874;2023-04-24T00:46:03;99743.81;;;8.50;86.81
62942;BME280;49042;47.318;19.874;2023-04-24T00:49:05;99740.09;;;8.71;84.91
62942;BME280;49042;47.318;19.874;2023-04-24T00:52:07;99746.66;;;8.58;85.94
62942;BME280;49042;47.318;19.874;2023-04-24T00:55:10;99738.06;;;8.61;87.06
62942;BME280;49042;47.318;19.874;2023-04-24T00:58:12;99735.38;;;8.90;84.65
62942;BME280;49042;47.318;19.874;2023-04-24T01:01:14;99738.06;;;8.61;85.84
62942;BME280;49042;47.318;19.874;2023-04-24T01:04:16;99733.13;;;8.70;85.43
62942;BME280;49042;47.318;19.874;2023-04-24T01:07:20;99737.59;;;8.45;87.36
62942;BME280;49042;47.318;19.874;2023-04-24T01:10:23;99733.50;;;8.84;86.45
62942;BME280;49042;47.318;19.874;2023-04-24T01:13:25;99729.63;;;9.02;85.05
62942;BME280;49042;47.318;19.874;2023-04-24T01:16:27;99728.44;;;9.25;83.85
62942;BME280;49042;47.318;19.874;2023-04-24T01:19:29;99728.97;;;9.11;84.88
62942;BME280;49042;47.318;19.874;2023-04-24T01:22:33;99729.47;;;8.96;85.59
62942;BME280;49042;47.318;19.874;2023-04-24T01:25:34;99731.25;;;8.98;84.78
62942;BME280;49042;47.318;19.874;2023-04-24T01:28:37;99729.75;;;9.07;85.21
62942;BME280;49042;47.318;19.874;2023-04-24T01:31:39;99733.69;;;8.92;86.32
62942;BME280;49042;47.318;19.874;2023-04-24T01:34:42;99740.00;;;9.01;86.51
62942;BME280;49042;47.318;19.874;2023-04-24T01:37:44;99740.53;;;9.23;85.27
62942;BME280;49042;47.318;19.874;2023-04-24T01:40:46;99739.84;;;9.30;84.31
62942;BME280;49042;47.318;19.874;2023-04-24T01:43:48;99742.72;;;9.41;83.53
62942;BME280;49042;47.318;19.874;2023-04-24T01:46:50;99743.97;;;9.57;83.48
62942;BME280;49042;47.318;19.874;2023-04-24T01:49:52;99742.53;;;9.70;84.00
62942;BME280;49042;47.318;19.874;2023-04-24T01:52:54;99744.66;;;9.50;84.75
62942;BME280;49042;47.318;19.874;2023-04-24T01:55:55;99737.34;;;9.72;82.99
62942;BME280;49042;47.318;19.874;2023-04-24T01:58:57;99735.75;;;9.77;82.76
62942;BME280;49042;47.318;19.874;2023-04-24T02:01:59;99726.28;;;9.82;82.35
62942;BME280;49042;47.318;19.874;2023-04-24T02:05:01;99724.16;;;9.64;83.89
62942;BME280;49042;47.318;19.874;2023-04-24T02:08:02;99713.19;;;9.78;83.40
62942;BME280;49042;47.318;19.874;2023-04-24T02:11:04;99704.28;;;9.68;84.56
62942;BME280;49042;47.318;19.874;2023-04-24T02:14:07;99690.97;;;9.53;85.34
62942;BME280;49042;47.318;19.874;2023-04-24T02:17:09;99699.28;;;9.77;83.62
62942;BME280;49042;47.318;19.874;2023-04-24T02:20:11;99691.16;;;9.63;85.53
62942;BME280;49042;47.318;19.874;2023-04-24T02:23:12;99690.06;;;9.53;85.06
62942;BME280;49042;47.318;19.874;2023-04-24T02:26:15;99682.50;;;9.27;86.74
62942;BME280;49042;47.318;19.874;2023-04-24T02:29:16;99680.94;;;9.34;85.30
62942;BME280;49042;47.318;19.874;2023-04-24T02:32:18;99680.37;;;9.46;85.18
62942;BME280;49042;47.318;19.874;2023-04-24T02:35:20;99669.66;;;9.33;85.80
62942;BME280;49042;47.318;19.874;2023-04-24T02:38:22;99667.75;;;9.26;87.04
62942;BME280;49042;47.318;19.874;2023-04-24T02:41:23;99679.56;;;9.11;89.37
62942;BME280;49042;47.318;19.874;2023-04-24T02:44:25;99692.03;;;9.26;89.63
62942;BME280;49042;47.318;19.874;2023-04-24T02:47:27;99675.44;;;9.21;90.05
62942;BME280;49042;47.318;19.874;2023-04-24T02:50:29;99683.91;;;9.12;91.25
62942;BME280;49042;47.318;19.874;2023-04-24T02:53:30;99672.72;;;9.15;92.02
62942;BME280;49042;47.318;19.874;2023-04-24T02:56:32;99665.22;;;9.29;91.32
62942;BME280;49042;47.318;19.874;2023-04-24T02:59:34;99682.00;;;9.42;90.91
62942;BME280;49042;47.318;19.874;2023-04-24T03:02:35;99664.88;;;9.52;90.06
62942;BME280;49042;47.318;19.874;2023-04-24T03:05:37;99666.59;;;9.51;90.69
62942;BME280;49042;47.318;19.874;2023-04-24T03:08:39;99669.00;;;9.42;92.13
62942;BME280;49042;47.318;19.874;2023-04-24T03:11:41;99667.47;;;9.50;91.91
62942;BME280;49042;47.318;19.874;2023-04-24T03:14:43;99661.69;;;9.64;92.03
62942;BME280;49042;47.318;19.874;2023-04-24T03:17:45;99665.22;;;9.68;92.46
62942;BME280;49042;47.318;19.874;2023-04-24T03:20:47;99654.88;;;9.71;92.43
62942;BME280;49042;47.318;19.874;2023-04-24T03:23:48;99651.50;;;9.75;92.95
62942;BME280;49042;47.318;19.874;2023-04-24T03:26:50;99658.72;;;9.48;97.63
62942;BME280;49042;47.318;19.874;2023-04-24T03:29:52;99663.34;;;9.60;99.44
62942;BME280;49042;47.318;19.874;2023-04-24T03:32:56;99661.44;;;9.53;100.00
62942;BME280;49042;47.318;19.874;2023-04-24T03:35:58;99645.84;;;9.55;100.00
62942;BME280;49042;47.318;19.874;2023-04-24T03:39:00;99659.97;;;9.64;100.00
62942;BME280;49042;47.318;19.874;2023-04-24T03:42:01;99655.47;;;9.59;100.00
62942;BME280;49042;47.318;19.874;2023-04-24T03:45:04;99653.94;;;9.67;100.00
62942;BME280;49042;47.318;19.874;2023-04-24T03:48:05;99649.81;;;9.77;100.00
62942;BME280;49042;47.318;19.874;2023-04-24T03:51:07;99642.75;;;9.73;100.00
62942;BME280;49042;47.318;19.874;2023-04-24T03:54:09;99659.66;;;9.50;100.00
62942;BME280;49042;47.318;19.874;2023-04-24T03:57:11;99647.66;;;9.59;100.00
62942;BME280;49042;47.318;19.874;2023-04-24T04:00:13;99657.69;;;9.40;100.00
62942;BME280;49042;47.318;19.874;2023-04-24T04:03:15;99657.69;;;9.41;100.00
62942;BME280;49042;47.318;19.874;2023-04-24T04:06:18;99655.59;;;9.26;100.00
62942;BME280;49042;47.318;19.874;2023-04-24T04:09:20;99656.88;;;9.44;100.00
62942;BME280;49042;47.318;19.874;2023-04-24T04:12:22;99663.03;;;9.48;100.00
62942;BME280;49042;47.318;19.874;2023-04-24T04:15:24;99668.94;;;9.39;100.00
62942;BME280;49042;47.318;19.874;2023-04-24T04:18:25;99666.66;;;9.53;100.00
62942;BME280;49042;47.318;19.874;2023-04-24T04:21:27;99669.62;;;9.31;100.00
62942;BME280;49042;47.318;19.874;2023-04-24T04:24:29;99664.44;;;9.33;100.00
62942;BME280;49042;47.318;19.874;2023-04-24T04:27:31;99661.38;;;9.13;100.00
62942;BME280;49042;47.318;19.874;2023-04-24T04:30:33;99662.56;;;9.26;100.00
62942;BME280;49042;47.318;19.874;2023-04-24T04:33:35;99657.25;;;9.21;100.00
62942;BME280;49042;47.318;19.874;2023-04-24T04:36:37;99657.44;;;9.29;100.00
62942;BME280;49042;47.318;19.874;2023-04-24T04:39:41;99664.59;;;9.39;100.00
62942;BME280;49042;47.318;19.874;2023-04-24T04:42:43;99653.88;;;9.25;100.00
62942;BME280;49042;47.318;19.874;2023-04-24T04:45:47;99655.72;;;9.31;100.00
62942;BME280;49042;47.318;19.874;2023-04-24T04:48:49;99663.97;;;9.50;100.00
62942;BME280;49042;47.318;19.874;2023-04-24T04:51:51;99666.66;;;9.53;100.00
62942;BME280;49042;47.318;19.874;2023-04-24T04:54:53;99681.22;;;9.85;100.00
62942;BME280;49042;47.318;19.874;2023-04-24T04:57:55;99657.50;;;9.72;100.00
62942;BME280;49042;47.318;19.874;2023-04-24T05:00:57;99655.06;;;9.80;100.00
62942;BME280;49042;47.318;19.874;2023-04-24T05:03:59;99664.34;;;10.09;100.00
62942;BME280;49042;47.318;19.874;2023-04-24T05:07:01;99649.28;;;10.39;100.00
62942;BME280;49042;47.318;19.874;2023-04-24T05:10:04;99650.69;;;10.68;100.00
62942;BME280;49042;47.318;19.874;2023-04-24T05:13:06;99649.25;;;10.86;100.00
62942;BME280;49042;47.318;19.874;2023-04-24T05:16:07;99659.59;;;10.79;100.00
62942;BME280;49042;47.318;19.874;2023-04-24T05:19:09;99660.72;;;10.96;100.00
62942;BME280;49042;47.318;19.874;2023-04-24T05:22:13;99681.78;;;11.07;100.00
62942;BME280;49042;47.318;19.874;2023-04-24T05:25:15;99695.81;;;11.13;100.00
62942;BME280;49042;47.318;19.874;2023-04-24T05:28:16;99687.13;;;11.13;100.00
62942;BME280;49042;47.318;19.874;2023-04-24T05:31:19;99689.59;;;11.07;100.00
62942;BME280;49042;47.318;19.874;2023-04-24T05:34:21;99681.19;;;11.23;100.00
62942;BME280;49042;47.318;19.874;2023-04-24T05:37:23;99674.13;;;11.18;100.00
62942;BME280;49042;47.318;19.874;2023-04-24T05:40:25;99655.41;;;10.89;100.00
62942;BME280;49042;47.318;19.874;2023-04-24T05:43:26;99631.97;;;10.92;100.00
62942;BME280;49042;47.318;19.874;2023-04-24T05:46:28;99623.38;;;10.48;100.00
62942;BME280;49042;47.318;19.874;2023-04-24T05:49:30;99629.66;;;10.12;100.00
62942;BME280;49042;47.318;19.874;2023-04-24T05:52:32;99649.31;;;10.41;100.00
62942;BME280;49042;47.318;19.874;2023-04-24T05:55:33;99641.91;;;10.16;100.00
62942;BME280;49042;47.318;19.874;2023-04-24T05:58:35;99633.19;;;10.15;100.00
62942;BME280;49042;47.318;19.874;2023-04-24T06:01:38;99632.44;;;10.21;100.00
62942;BME280;49042;47.318;19.874;2023-04-24T06:04:40;99628.41;;;10.39;100.00
62942;BME280;49042;47.318;19.874;2023-04-24T06:07:43;99623.53;;;10.55;100.00
62942;BME280;49042;47.318;19.874;2023-04-24T06:10:45;99613.84;;;10.49;100.00
62942;BME280;49042;47.318;19.874;2023-04-24T06:13:47;99613.78;;;10.46;100.00
62942;BME280;49042;47.318;19.874;2023-04-24T06:16:48;99620.97;;;10.58;100.00
62942;BME280;49042;47.318;19.874;2023-04-24T06:19:50;99616.47;;;10.50;100.00
62942;BME280;49042;47.318;19.874;2023-04-24T06:22:52;99608.72;;;10.54;100.00
62942;BME280;49042;47.318;19.874;2023-04-24T06:25:56;99615.56;;;10.48;100.00
62942;BME280;49042;47.318;19.874;2023-04-24T06:28:57;99619.00;;;10.97;100.00
62942;BME280;49042;47.318;19.874;2023-04-24T06:32:00;99611.69;;;11.32;100.00
62942;BME280;49042;47.318;19.874;2023-04-24T06:35:02;99613.66;;;11.47;100.00
62942;BME280;49042;47.318;19.874;2023-04-24T06:38:04;99621.38;;;11.39;100.00
62942;BME280;49042;47.318;19.874;2023-04-24T06:41:06;99618.03;;;11.50;100.00
62942;BME280;49042;47.318;19.874;2023-04-24T06:44:08;99624.22;;;11.56;100.00
62942;BME280;49042;47.318;19.874;2023-04-24T06:47:10;99622.03;;;11.89;100.00
62942;BME280;49042;47.318;19.874;2023-04-24T06:50:14;99633.50;;;12.01;100.00
62942;BME280;49042;47.318;19.874;2023-04-24T06:53:15;99638.84;;;12.10;100.00
62942;BME280;49042;47.318;19.874;2023-04-24T06:56:17;99638.94;;;12.17;100.00
62942;BME280;49042;47.318;19.874;2023-04-24T06:59:19;99638.84;;;12.10;100.00
62942;BME280;49042;47.318;19.874;2023-04-24T07:02:21;99636.94;;;11.97;100.00
62942;BME280;49042;47.318;19.874;2023-04-24T07:05:23;99633.63;;;12.14;100.00
62942;BME280;49042;47.318;19.874;2023-04-24T07:08:25;99633.47;;;11.99;100.00
62942;BME280;49042;47.318;19.874;2023-04-24T07:11:27;99633.44;;;11.96;100.00
62942;BME280;49042;47.318;19.874;2023-04-24T07:14:30;99627.44;;;12.04;100.00
62942;BME280;49042;47.318;19.874;2023-04-24T07:17:32;99624.22;;;12.25;100.00
62942;BME280;49042;47.318;19.874;2023-04-24T07:20:34;99623.69;;;12.62;100.00
62942;BME280;49042;47.318;19.874;2023-04-24T07:23:36;99637.63;;;12.60;100.00
62942;BME280;49042;47.318;19.874;2023-04-24T07:26:37;99638.72;;;12.82;100.00
62942;BME280;49042;47.318;19.874;2023-04-24T07:29:41;99627.50;;;13.01;100.00
62942;BME280;49042;47.318;19.874;2023-04-24T07:32:46;99635.31;;;12.94;100.00
62942;BME280;49042;47.318;19.874;2023-04-24T07:35:48;99630.31;;;13.24;100.00
62942;BME280;49042;47.318;19.874;2023-04-24T07:38:49;99635.56;;;13.29;100.00
62942;BME280;49042;47.318;19.874;2023-04-24T07:41:51;99637.47;;;13.52;100.00
62942;BME280;49042;47.318;19.874;2023-04-24T07:44:53;99637.59;;;13.73;100.00
62942;BME280;49042;47.318;19.874;2023-04-24T07:47:55;99649.94;;;14.00;100.00
62942;BME280;49042;47.318;19.874;2023-04-24T07:50:57;99646.44;;;13.92;100.00
62942;BME280;49042;47.318;19.874;2023-04-24T07:53:58;99640.38;;;14.09;100.00
62942;BME280;49042;47.318;19.874;2023-04-24T07:57:00;99637.75;;;14.13;100.00
62942;BME280;49042;47.318;19.874;2023-04-24T08:00:03;99639.56;;;14.27;97.78
62942;BME280;49042;47.318;19.874;2023-04-24T08:03:05;99634.31;;;14.30;96.58
62942;BME280;49042;47.318;19.874;2023-04-24T08:06:07;99642.22;;;14.49;97.03
62942;BME280;49042;47.318;19.874;2023-04-24T08:09:09;99636.09;;;14.44;97.42
62942;BME280;49042;47.318;19.874;2023-04-24T08:12:11;99647.44;;;14.30;97.24
62942;BME280;49042;47.318;19.874;2023-04-24T08:15:13;99643.87;;;14.08;97.86
62942;BME280;49042;47.318;19.874;2023-04-24T08:18:14;99648.19;;;13.95;99.99
62942;BME280;49042;47.318;19.874;2023-04-24T08:21:17;99653.38;;;13.85;100.00
62942;BME280;49042;47.318;19.874;2023-04-24T08:24:20;99673.41;;;13.70;100.00
62942;BME280;49042;47.318;19.874;2023-04-24T08:27:21;99669.59;;;13.24;100.00
62942;BME280;49042;47.318;19.874;2023-04-24T08:30:23;99669.50;;;13.15;100.00
62942;BME280;49042;47.318;19.874;2023-04-24T08:33:25;99665.94;;;13.03;100.00
62942;BME280;49042;47.318;19.874;2023-04-24T08:36:26;99662.28;;;12.87;100.00
62942;BME280;49042;47.318;19.874;2023-04-24T08:39:44;99657.03;;;12.82;100.00
62942;BME280;49042;47.318;19.874;2023-04-24T08:42:46;99671.09;;;12.97;100.00
62942;BME280;49042;47.318;19.874;2023-04-24T08:45:47;99671.19;;;13.06;100.00
62942;BME280;49042;47.318;19.874;2023-04-24T08:48:50;99665.16;;;13.15;100.00
62942;BME280;49042;47.318;19.874;2023-04-24T08:51:52;99665.91;;;13.00;100.00
62942;BME280;49042;47.318;19.874;2023-04-24T08:54:54;99665.91;;;13.02;100.00
62942;BME280;49042;47.318;19.874;2023-04-24T08:57:57;99662.34;;;12.92;100.00
62942;BME280;49042;47.318;19.874;2023-04-24T09:00:58;99666.94;;;13.23;100.00
62942;BME280;49042;47.318;19.874;2023-04-24T09:04:03;99665.25;;;13.30;100.00
62942;BME280;49042;47.318;19.874;2023-04-24T09:07:06;99666.03;;;13.14;100.00
62942;BME280;49042;47.318;19.874;2023-04-24T09:10:10;99662.47;;;13.09;100.00
62942;BME280;49042;47.318;19.874;2023-04-24T09:13:12;99656.22;;;12.91;100.00
62942;BME280;49042;47.318;19.874;2023-04-24T09:16:14;99650.75;;;12.61;100.00
62942;BME280;49042;47.318;19.874;2023-04-24T09:19:16;99651.63;;;12.65;100.00
62942;BME280;49042;47.318;19.874;2023-04-24T09:22:18;99646.28;;;12.52;100.00
62942;BME280;49042;47.318;19.874;2023-04-24T09:25:20;99641.00;;;12.46;100.00
62942;BME280;49042;47.318;19.874;2023-04-24T09:28:29;99631.00;;;12.97;100.00
62942;BME280;49042;47.318;19.874;2023-04-24T09:31:31;99636.97;;;12.84;100.00
62942;BME280;49042;47.318;19.874;2023-04-24T09:34:33;99635.31;;;12.93;100.00
62942;BME280;49042;47.318;19.874;2023-04-24T09:37:37;99621.47;;;13.06;100.00
62942;BME280;49042;47.318;19.874;2023-04-24T09:40:39;99625.06;;;13.24;100.00
62942;BME280;49042;47.318;19.874;2023-04-24T09:43:42;99625.13;;;13.34;100.00
62942;BME280;49042;47.318;19.874;2023-04-24T09:46:45;99626.00;;;13.34;100.00
62942;BME280;49042;47.318;19.874;2023-04-24T09:49:47;99619.22;;;13.66;100.00
62942;BME280;49042;47.318;19.874;2023-04-24T09:52:59;99626.34;;;13.97;100.00
62942;BME280;49042;47.318;19.874;2023-04-24T09:56:10;99626.41;;;14.21;100.00
62942;BME280;49042;47.318;19.874;2023-04-24T09:59:15;99619.53;;;14.87;100.00
62942;BME280;49042;47.318;19.874;2023-04-24T10:02:18;99607.25;;;15.40;100.00
62942;BME280;49042;47.318;19.874;2023-04-24T10:05:24;99605.34;;;15.78;100.00
62942;BME280;49042;47.318;19.874;2023-04-24T10:08:26;99598.13;;;17.37;95.49
62942;BME280;49042;47.318;19.874;2023-04-24T10:11:34;99608.94;;;17.91;87.19
62942;BME280;49042;47.318;19.874;2023-04-24T10:14:36;99610.44;;;18.71;87.64
62942;BME280;49042;47.318;19.874;2023-04-24T10:17:38;99611.56;;;19.10;76.48
62942;BME280;49042;47.318;19.874;2023-04-24T10:20:41;99613.63;;;19.89;70.61
62942;BME280;49042;47.318;19.874;2023-04-24T10:23:42;99607.88;;;19.68;68.21
62942;BME280;49042;47.318;19.874;2023-04-24T10:26:46;99606.88;;;19.29;71.31
62942;BME280;49042;47.318;19.874;2023-04-24T10:29:51;99610.03;;;18.96;73.72
62942;BME280;49042;47.318;19.874;2023-04-24T10:32:54;99620.22;;;18.66;73.93
62942;BME280;49042;47.318;19.874;2023-04-24T10:35:57;99602.66;;;18.63;73.45
62942;BME280;49042;47.318;19.874;2023-04-24T10:39:06;99608.28;;;18.97;71.42
62942;BME280;49042;47.318;19.874;2023-04-24T10:42:15;99610.25;;;19.36;72.94
62942;BME280;49042;47.318;19.874;2023-04-24T10:45:19;99610.75;;;19.06;72.65
62942;BME280;49042;47.318;19.874;2023-04-24T10:48:26;99606.59;;;19.43;68.01
62942;BME280;49042;47.318;19.874;2023-04-24T10:51:50;99596.72;;;19.02;71.61
62942;BME280;49042;47.318;19.874;2023-04-24T10:54:52;99597.72;;;18.95;73.83
62942;BME280;49042;47.318;19.874;2023-04-24T10:58:04;99587.09;;;19.00;72.83
62942;BME280;49042;47.318;19.874;2023-04-24T11:01:06;99588.66;;;19.60;71.58
62942;BME280;49042;47.318;19.874;2023-04-24T11:04:10;99584.94;;;19.22;70.41
62942;BME280;49042;47.318;19.874;2023-04-24T11:07:12;99584.56;;;19.43;71.50
62942;BME280;49042;47.318;19.874;2023-04-24T11:10:26;99571.66;;;18.76;74.29
62942;BME280;49042;47.318;19.874;2023-04-24T11:16:55;99575.44;;;19.10;67.32
62942;BME280;49042;47.318;19.874;2023-04-24T11:20:10;99567.69;;;19.48;65.44
62942;BME280;49042;47.318;19.874;2023-04-24T11:23:36;99571.50;;;19.33;59.37
62942;BME280;49042;47.318;19.874;2023-04-24T11:26:38;99574.06;;;19.40;63.02
62942;BME280;49042;47.318;19.874;2023-04-24T11:32:52;99563.97;;;20.00;59.71
62942;BME280;49042;47.318;19.874;2023-04-24T11:35:54;99565.44;;;20.16;56.72
62942;BME280;49042;47.318;19.874;2023-04-24T11:38:56;99571.38;;;19.84;60.00
62942;BME280;49042;47.318;19.874;2023-04-24T11:42:02;99570.06;;;19.61;57.57
62942;BME280;49042;47.318;19.874;2023-04-24T11:45:12;99558.06;;;19.89;59.25
62942;BME280;49042;47.318;19.874;2023-04-24T11:48:19;99568.75;;;19.83;56.13
62942;BME280;49042;47.318;19.874;2023-04-24T11:51:24;99560.44;;;19.60;56.10
62942;BME280;49042;47.318;19.874;2023-04-24T11:54:47;99560.50;;;19.57;59.24
62942;BME280;49042;47.318;19.874;2023-04-24T11:57:52;99562.72;;;19.76;56.78
62942;BME280;49042;47.318;19.874;2023-04-24T12:00:57;99561.66;;;19.85;57.39
62942;BME280;49042;47.318;19.874;2023-04-24T12:04:02;99547.09;;;19.65;55.96
62942;BME280;49042;47.318;19.874;2023-04-24T12:07:04;99551.28;;;19.75;58.45
62942;BME280;49042;47.318;19.874;2023-04-24T12:10:07;99543.75;;;19.56;56.96
62942;BME280;49042;47.318;19.874;2023-04-24T12:13:09;99550.87;;;19.51;56.02
62942;BME280;49042;47.318;19.874;2023-04-24T12:16:11;99548.38;;;19.86;55.27
62942;BME280;49042;47.318;19.874;2023-04-24T12:19:18;99544.63;;;19.57;57.31
62942;BME280;49042;47.318;19.874;2023-04-24T12:22:21;99532.12;;;20.04;55.90
62942;BME280;49042;47.318;19.874;2023-04-24T12:25:28;99522.53;;;19.58;56.16
62942;BME280;49042;47.318;19.874;2023-04-24T12:28:36;99529.84;;;19.46;57.84
62942;BME280;49042;47.318;19.874;2023-04-24T12:31:39;99519.41;;;19.82;56.27
62942;BME280;49042;47.318;19.874;2023-04-24T12:34:43;99530.69;;;20.30;50.99
62942;BME280;49042;47.318;19.874;2023-04-24T12:37:44;99517.12;;;20.42;49.79
62942;BME280;49042;47.318;19.874;2023-04-24T12:40:48;99513.03;;;19.90;49.87
62942;BME280;49042;47.318;19.874;2023-04-24T12:43:53;99511.03;;;20.00;50.01
62942;BME280;49042;47.318;19.874;2023-04-24T12:46:55;99507.59;;;19.97;50.58
62942;BME280;49042;47.318;19.874;2023-04-24T12:49:57;99512.78;;;21.10;46.45
62942;BME280;49042;47.318;19.874;2023-04-24T12:52:58;99493.69;;;22.97;42.15
62942;BME280;49042;47.318;19.874;2023-04-24T12:56:00;99502.41;;;24.43;39.31
62942;BME280;49042;47.318;19.874;2023-04-24T12:59:02;99491.69;;;24.44;38.88
62942;BME280;49042;47.318;19.874;2023-04-24T13:02:03;99494.28;;;23.78;39.57
62942;BME280;49042;47.318;19.874;2023-04-24T13:05:05;99483.63;;;23.56;40.25
62942;BME280;49042;47.318;19.874;2023-04-24T13:08:07;99484.59;;;23.29;39.41
62942;BME280;49042;47.318;19.874;2023-04-24T13:11:09;99482.28;;;22.15;42.33
62942;BME280;49042;47.318;19.874;2023-04-24T13:14:11;99491.34;;;22.36;40.66
62942;BME280;49042;47.318;19.874;2023-04-24T13:17:13;99483.50;;;23.59;39.75
62942;BME280;49042;47.318;19.874;2023-04-24T13:20:16;99480.47;;;23.44;39.74
62942;BME280;49042;47.318;19.874;2023-04-24T13:23:17;99466.41;;;22.13;42.32
62942;BME280;49042;47.318;19.874;2023-04-24T13:26:19;99469.53;;;21.69;43.23
62942;BME280;49042;47.318;19.874;2023-04-24T13:29:21;99461.56;;;22.52;42.81
62942;BME280;49042;47.318;19.874;2023-04-24T13:32:22;99451.16;;;23.70;40.02
62942;BME280;49042;47.318;19.874;2023-04-24T13:35:24;99458.84;;;23.29;40.40
62942;BME280;49042;47.318;19.874;2023-04-24T13:38:26;99455.31;;;22.81;41.48
62942;BME280;49042;47.318;19.874;2023-04-24T13:41:28;99457.97;;;22.00;43.61
62942;BME280;49042;47.318;19.874;2023-04-24T13:44:29;99458.94;;;21.08;46.83
62942;BME280;49042;47.318;19.874;2023-04-24T13:47:31;99458.78;;;20.10;49.90
62942;BME280;49042;47.318;19.874;2023-04-24T13:50:33;99464.25;;;19.20;52.49
62942;BME280;49042;47.318;19.874;2023-04-24T13:53:34;99460.16;;;18.58;57.00
62942;BME280;49042;47.318;19.874;2023-04-24T13:56:40;99451.66;;;18.40;57.42
62942;BME280;49042;47.318;19.874;2023-04-24T13:59:42;99453.03;;;18.06;60.17
62942;BME280;49042;47.318;19.874;2023-04-24T14:02:43;99452.50;;;17.85;63.14
62942;BME280;49042;47.318;19.874;2023-04-24T14:05:45;99452.59;;;17.79;63.44
62942;BME280;49042;47.318;19.874;2023-04-24T14:08:47;99453.91;;;18.07;62.19
62942;BME280;49042;47.318;19.874;2023-04-24T14:11:49;99448.41;;;18.24;61.61
62942;BME280;49042;47.318;19.874;2023-04-24T14:14:51;99447.16;;;17.88;61.24
62942;BME280;49042;47.318;19.874;2023-04-24T14:17:53;99450.31;;;17.54;63.74
62942;BME280;49042;47.318;19.874;2023-04-24T14:20:54;99446.09;;;17.39;65.55
62942;BME280;49042;47.318;19.874;2023-04-24T14:23:56;99454.78;;;17.49;66.80
62942;BME280;49042;47.318;19.874;2023-04-24T14:26:58;99447.22;;;17.19;68.32
62942;BME280;49042;47.318;19.874;2023-04-24T14:30:00;99447.06;;;17.34;69.91
62942;BME280;49042;47.318;19.874;2023-04-24T14:33:03;99442.56;;;17.41;69.97
62942;BME280;49042;47.318;19.874;2023-04-24T14:36:05;99443.41;;;17.45;70.08
62942;BME280;49042;47.318;19.874;2023-04-24T14:39:07;99435.75;;;17.25;70.23
62942;BME280;49042;47.318;19.874;2023-04-24T14:42:09;99428.13;;;16.99;72.35
62942;BME280;49042;47.318;19.874;2023-04-24T14:45:10;99442.22;;;16.94;73.20
62942;BME280;49042;47.318;19.874;2023-04-24T14:48:12;99438.03;;;16.78;73.08
62942;BME280;49042;47.318;19.874;2023-04-24T14:51:14;99445.41;;;16.42;75.69
62942;BME280;49042;47.318;19.874;2023-04-24T14:54:15;99435.66;;;16.52;75.21
62942;BME280;49042;47.318;19.874;2023-04-24T14:57:17;99443.78;;;16.28;75.98
62942;BME280;49042;47.318;19.874;2023-04-24T15:00:21;99438.34;;;16.44;76.28
62942;BME280;49042;47.318;19.874;2023-04-24T15:03:24;99433.25;;;16.28;77.47
62942;BME280;49042;47.318;19.874;2023-04-24T15:06:29;99423.59;;;16.27;77.15
62942;BME280;49042;47.318;19.874;2023-04-24T15:09:32;99426.19;;;16.32;77.56
62942;BME280;49042;47.318;19.874;2023-04-24T15:12:34;99426.28;;;16.19;78.94
62942;BME280;49042;47.318;19.874;2023-04-24T15:15:36;99423.69;;;16.18;78.37
62942;BME280;49042;47.318;19.874;2023-04-24T15:18:38;99412.28;;;16.17;79.47
62942;BME280;49042;47.318;19.874;2023-04-24T15:21:40;99410.62;;;16.03;79.00
62942;BME280;49042;47.318;19.874;2023-04-24T15:24:43;99410.59;;;16.08;79.61
62942;BME280;49042;47.318;19.874;2023-04-24T15:27:45;99408.06;;;15.94;81.25
62942;BME280;49042;47.318;19.874;2023-04-24T15:30:47;99409.00;;;15.90;82.47
62942;BME280;49042;47.318;19.874;2023-04-24T15:33:50;99404.53;;;16.00;82.72
62942;BME280;49042;47.318;19.874;2023-04-24T15:36:52;99401.94;;;15.93;83.00
62942;BME280;49042;47.318;19.874;2023-04-24T15:39:53;99405.44;;;15.95;83.38
62942;BME280;49042;47.318;19.874;2023-04-24T15:42:55;99406.31;;;15.91;83.33
62942;BME280;49042;47.318;19.874;2023-04-24T15:45:57;99407.13;;;16.01;84.43
62942;BME280;49042;47.318;19.874;2023-04-24T15:48:59;99409.81;;;15.97;83.86
62942;BME280;49042;47.318;19.874;2023-04-24T15:52:01;99411.59;;;15.91;84.93
62942;BME280;49042;47.318;19.874;2023-04-24T15:55:03;99406.41;;;15.80;85.85
62942;BME280;49042;47.318;19.874;2023-04-24T15:58:06;99407.25;;;15.86;85.12
62942;BME280;49042;47.318;19.874;2023-04-24T16:01:08;99402.81;;;15.91;86.05